GBSZO EGMA-EGMA

Flight info

Callsign GBSZO
Flight time 0h 6m
Altitude 1000
Route L/H PATTERNS
Aircraft C152/L-SFG/G

Departure

Time 2026-04-23 18:53
Airport Fowlmere Airfield (EGMA)

Arrival

Time 2026-04-23 18:59
Airport Fowlmere Airfield (EGMA)
Time Latitude Longitude Altitude Speed Heading
2026-04-23 18:35 52.08244 0.05815 129 ft 0 kts 344°
2026-04-23 18:46 52.08245 0.05815 127 ft 1 kts 334°
2026-04-23 18:46 52.08242 0.05799 129 ft 0 kts 191°
2026-04-23 18:48 52.08218 0.05787 129 ft 6 kts 202°
2026-04-23 18:48 52.08191 0.05760 130 ft 4 kts 205°
2026-04-23 18:49 52.08160 0.05738 128 ft 6 kts 198°
2026-04-23 18:49 52.08105 0.05723 130 ft 10 kts 176°
2026-04-23 18:49 52.08041 0.05748 129 ft 8 kts 164°
2026-04-23 18:49 52.07974 0.05771 128 ft 13 kts 169°
2026-04-23 18:50 52.07908 0.05792 128 ft 15 kts 168°
2026-04-23 18:50 52.07781 0.05849 130 ft 12 kts 178°
2026-04-23 18:50 52.07703 0.05850 129 ft 12 kts 177°
2026-04-23 18:50 52.07663 0.05778 127 ft 8 kts 241°
2026-04-23 18:51 52.07645 0.05716 125 ft 4 kts 245°
2026-04-23 18:51 52.07625 0.05640 127 ft 8 kts 247°
2026-04-23 18:51 52.07593 0.05623 128 ft 6 kts 111°
2026-04-23 18:51 52.07595 0.05642 126 ft 0 kts 64°
2026-04-23 18:52 52.07617 0.05718 126 ft 28 kts 68°
2026-04-23 18:52 52.07761 0.06206 170 ft 61 kts 66°
2026-04-23 18:52 52.07936 0.06855 377 ft 61 kts 68°
2026-04-23 18:52 52.08087 0.07476 633 ft 57 kts 69°
2026-04-23 18:53 52.08246 0.08085 813 ft 59 kts 67°
2026-04-23 18:53 52.08520 0.08519 1040 ft 62 kts 10°
2026-04-23 18:53 52.08995 0.08388 1115 ft 74 kts 355°
2026-04-23 18:53 52.09476 0.08101 1159 ft 74 kts 351°
2026-04-23 18:54 52.09984 0.07722 1140 ft 91 kts 326°
2026-04-23 18:54 52.10155 0.06688 1146 ft 98 kts 268°
2026-04-23 18:54 52.10054 0.05567 1144 ft 103 kts 260°
2026-04-23 18:54 52.09899 0.04396 1084 ft 109 kts 259°
2026-04-23 18:55 52.09737 0.03186 1011 ft 111 kts 257°
2026-04-23 18:55 52.09464 0.02079 1060 ft 103 kts 236°
2026-04-23 18:55 52.09041 0.01143 1063 ft 102 kts 228°
2026-04-23 18:55 52.08556 0.00351 1092 ft 98 kts 211°
2026-04-23 18:56 52.08186 -0.00048 1113 ft 95 kts 207°
2026-04-23 18:56 52.07398 -0.00573 1124 ft 92 kts 178°
2026-04-23 18:56 52.06756 -0.00582 1019 ft 99 kts 168°
2026-04-23 18:56 52.06212 -0.00157 1035 ft 85 kts 120°
2026-04-23 18:57 52.06111 0.00722 1005 ft 74 kts 77°
2026-04-23 18:57 52.06324 0.01420 858 ft 59 kts 60°
2026-04-23 18:57 52.06538 0.01961 689 ft 59 kts 63°
2026-04-23 18:57 52.06727 0.02572 562 ft 59 kts 69°
2026-04-23 18:58 52.06888 0.03116 468 ft 51 kts 64°
2026-04-23 18:58 52.07061 0.03660 408 ft 58 kts 67°
2026-04-23 18:58 52.07221 0.04282 351 ft 59 kts 68°
2026-04-23 18:58 52.07383 0.04878 257 ft 59 kts 66°
2026-04-23 18:59 52.07552 0.05475 159 ft 54 kts 67°
2026-04-23 18:59 52.07693 0.05982 127 ft 38 kts 60°
2026-04-23 18:59 52.07760 0.06185 130 ft 7 kts
2026-04-23 18:59 52.07762 0.06130 130 ft 6 kts 245°
2026-04-23 19:00 52.07744 0.06067 127 ft 7 kts 244°
2026-04-23 19:00 52.07720 0.05979 129 ft 8 kts 243°
2026-04-23 19:00 52.07710 0.05887 130 ft 9 kts 324°
2026-04-23 19:00 52.07779 0.05851 128 ft 11 kts 347°
2026-04-23 19:01 52.07850 0.05826 130 ft 14 kts 352°
2026-04-23 19:01 52.07958 0.05783 129 ft 14 kts 344°
2026-04-23 19:01 52.08043 0.05756 130 ft 12 kts 358°
2026-04-23 19:01 52.08124 0.05763 130 ft 11 kts
2026-04-23 19:02 52.08155 0.05772 130 ft 0 kts 323°